Nearby METAR Reports

 

KSFO - San Francisco, California, USA
Distance from station: NNW 8km
Updated: Mon, 18-Jun-2018 11:56am PDT
Partly cloudy
Partly cloudy
 Wind from NW
Wind: NW 15 mph , 24 km/h
Temperature: 70°F , 21°C
Dew Point: 54°F , 12°C
Humidity: 57%
Barometer: 30.04 inHg , 1017.3 hPa
Clouds: Partly cloudy
Visibility: 10 miles , 16 km
Cloud details: Few Clouds 2000 ft
Partly cloudy 20000 ft
2018/06/18 18:56 KSFO 181856Z 32013KT 10SM FEW020 SCT200 21/12 A3004 RMK AO2 SLP173 T02060117
KSQL - San Carlos Airpo, California, USA
Distance from station: ESE 8km
Updated: Mon, 18-Jun-2018 11:47am PDT
Few Clouds
Few Clouds
 Wind from NNW
Wind: NNW 8 mph , 13 km/h
Temperature: 68°F , 20°C
Dew Point: 55°F , 13°C
Humidity: 64%
Barometer: 30.05 inHg , 1017.6 hPa
Clouds: Few Clouds
Visibility: 10 miles , 16 km
Cloud details: Few Clouds 3000 ft
2018/06/18 18:47 KSQL 181847Z 33007KT 10SM FEW030 20/13 A3005
 
KHAF - Half Moon Bay, California, USA
Distance from station: WSW 15km
Updated: Mon, 18-Jun-2018 12:15pm PDT
Few Clouds
Few Clouds
 
Temperature: 59°F , 15°C
Dew Point: 54°F , 12°C
Humidity: 82%
Barometer: 30.08 inHg , 1018.6 hPa
Clouds: Few Clouds
Visibility: 9 miles , 14 km
Cloud details: Few Clouds 1400 ft
2018/06/18 19:15 KHAF 181915Z AUTO 9SM FEW014 15/12 A3008 RMK AO2
KOAK - Oakland, California, USA
Distance from station: NNE 21km
Updated: Mon, 18-Jun-2018 11:53am PDT
Few Clouds
Few Clouds
 Wind from WNW
Wind: WNW 10 mph , 17 km/h
Temperature: 64°F , 18°C
Dew Point: 54°F , 12°C
Humidity: 68%
Barometer: 30.06 inHg , 1017.9 hPa
Clouds: Few Clouds
Visibility: 10 miles , 16 km
Cloud details: Few Clouds 1500 ft
Few Clouds 18000 ft
2018/06/18 18:53 KOAK 181853Z 30009KT 10SM FEW015 FEW180 18/12 A3006 RMK AO2 SLP179 T01780122
 
KPAO - Palo Alto, California, USA
Distance from station: ESE 21km
Updated: Mon, 18-Jun-2018 10:47am PDT
NOT Current
Few Clouds
Few Clouds
 Wind from N
Wind: N 8 mph , 13 km/h
Temperature: 72°F , 22°C
Dew Point: 57°F , 14°C
Humidity: 61%
Barometer: 30.06 inHg , 1017.9 hPa
Clouds: Few Clouds
Visibility: 10 miles , 16 km
Cloud details: Few Clouds 2500 ft
2018/06/18 17:47 KPAO 181747Z 35007KT 10SM FEW025 22/14 A3006
KHWD - Hayward, California, USA
Distance from station: NE 23km
Updated: Mon, 18-Jun-2018 11:54am PDT
Clear
Clear
 Wind from W
Wind: W 8 mph , 13 km/h
Temperature: 70°F , 21°C
Dew Point: 54°F , 12°C
Humidity: 57%
Barometer: 30.05 inHg , 1017.6 hPa
Clouds: Clear
Visibility: 10 miles , 16 km
2018/06/18 18:54 KHWD 181854Z 27007KT 10SM CLR 21/12 A3005 RMK AO2 SLP185 T02060122
 
KNUQ - Moffett Nas/Mtn, California, USA
Distance from station: ESE 30km
Updated: Mon, 18-Jun-2018 11:56am PDT
Clear
Clear
 Wind from N
Wind: N 9 mph , 15 km/h
Temperature: 72°F , 22°C
Dew Point: 55°F , 13°C
Humidity: 57%
Barometer: 30.05 inHg , 1017.6 hPa
Clouds: Clear
Visibility: 10 miles , 16 km
2018/06/18 18:56 KNUQ 181856Z 36008KT 10SM CLR 22/13 A3005 RMK AO2 SLP178 T02170133
KSJC - San Jose, California, USA
Distance from station: ESE 42km
Updated: Mon, 18-Jun-2018 11:53am PDT
Partly cloudy
Partly cloudy
 Wind from NW
Wind: NW 9 mph , 15 km/h
Temperature: 73°F , 23°C
Dew Point: 54°F , 12°C
Humidity: 50%
Barometer: 30.04 inHg , 1017.3 hPa
Clouds: Partly cloudy
Visibility: 10 miles , 16 km
Cloud details: Few Clouds 4600 ft
Partly cloudy 8000 ft
Partly cloudy 11000 ft
2018/06/18 18:53 KSJC 181853Z 31008KT 10SM FEW046 SCT080 SCT110 23/12 A3004 RMK AO2 SLP170 T02330122
 
KLVK - Livermore, California, USA
Distance from station: ENE 49km
Updated: Mon, 18-Jun-2018 11:53am PDT
Clear
Clear
 Wind from NW
Wind: NW 9 mph , 15 km/h
Temperature: 75°F , 24°C
Dew Point: 59°F , 15°C
Humidity: 57%
Barometer: 30.02 inHg , 1016.6 hPa
Clouds: Clear
Visibility: 10 miles , 16 km
2018/06/18 18:53 KLVK 181853Z 31008KT 10SM CLR 24/15 A3002 RMK AO2 SLPNO T02390150
KRHV - San Jose/Reid, California, USA
Distance from station: ESE 53km
Updated: Mon, 18-Jun-2018 11:47am PDT
Clear
Clear
 Wind from NNW
Wind: NNW 9 mph , 15 km/h
Temperature: 73°F , 23°C
Dew Point: 54°F , 12°C
Humidity: 50%
Barometer: 30.02 inHg , 1016.6 hPa
Clouds: Clear
Visibility: 10 miles , 16 km
2018/06/18 18:47 KRHV 181847Z 33008KT 10SM SKC 23/12 A3002
 
KCCR - Concord, California, USA
Distance from station: NNE 56km
Updated: Mon, 18-Jun-2018 11:53am PDT
Clear
Clear
 Wind from varies
Wind: varies 7 mph , 11 km/h
Temperature: 75°F , 24°C
Dew Point: 54°F , 12°C
Humidity: 47%
Barometer: 30.03 inHg , 1016.9 hPa
Clouds: Clear
Visibility: 10 miles , 16 km
2018/06/18 18:53 KCCR 181853Z VRB06KT 10SM CLR 24/12 A3003 RMK AO2 SLP154 T02390117
KDVO - Novato/Gnoss Fld, California, USA
Distance from station: NNW 70km
Updated: Mon, 18-Jun-2018 12:15pm PDT
Clear
Clear
 Wind from NE
Wind: NE 5 mph , 7 km/h, Gust: 13 mph , 20 km/h
Temperature: 73°F , 23°C
Dew Point: 55°F , 13°C
Humidity: 53%
Barometer: 30.03 inHg , 1016.9 hPa
Clouds: Clear
Visibility: 10 miles , 16 km
2018/06/18 19:15 KDVO 181915Z AUTO 04004G11KT 10SM CLR 23/13 A3003 RMK AO2
 
KAPC - Napa, California, USA
Distance from station: N 73km
Updated: Mon, 18-Jun-2018 11:54am PDT
Clear
Clear
 Wind from SSW
Wind: SSW 8 mph , 13 km/h
Temperature: 68°F , 20°C
Dew Point: 55°F , 13°C
Humidity: 64%
Barometer: 30.04 inHg , 1017.3 hPa
Clouds: Clear
Visibility: 10 miles , 16 km
2018/06/18 18:54 KAPC 181854Z 21007KT 10SM CLR 20/13 A3004 RMK AO2 SLP164 T02000128